Lansing, Kansas
Current Conditions -  °F | °C
As of 6:53 PM on Tuesday 21 Oct 2014 (Local Time) from KMCI Reporting Station
Clear Clear  
Wind Chill: 65°   Ceiling: Unl
Heat Index: 65°   Visibility: 10mi
Dew Point: 43°   Wind: 7mph
Humidity: 45%   Direction: 100°E
Pressure: 30.08"   Gusts: NA
Location:  39.24°N, 94.9°W
Report Text: KMCI 212353Z 10006KT 10SM CLR 18/06 A3008 RMK AO2 SLP182 T01830061 10222 20183 55002
Loading
Personal Weather Stations






























Interactive Weather Map New forecast layout! Learn more

10-Day Weather Forecast

Advertisements
Track Severe Weather on mobile